sensor_id;sensor_type;location;lat;lon;timestamp;P1;durP1;ratioP1;P2;durP2;ratioP2
75297;SDS011;63896;45.990;18.688;2022-09-30T09:02:30;0.95;;;0.73;;
75297;SDS011;63896;45.990;18.688;2022-09-30T09:09:07;1.58;;;1.20;;
75297;SDS011;63896;45.990;18.688;2022-09-30T09:15:58;0.77;;;0.73;;
75297;SDS011;63896;45.990;18.688;2022-09-30T09:22:16;0.93;;;0.70;;
75297;SDS011;63896;45.990;18.688;2022-09-30T09:25:25;1.10;;;0.70;;
75297;SDS011;63896;45.990;18.688;2022-09-30T09:31:35;1.95;;;0.70;;
75297;SDS011;63896;45.990;18.688;2022-09-30T09:34:38;0.88;;;0.80;;
75297;SDS011;63896;45.990;18.688;2022-09-30T09:37:45;4.13;;;1.10;;
75297;SDS011;63896;45.990;18.688;2022-09-30T09:41:35;2.25;;;1.20;;
75297;SDS011;63896;45.990;18.688;2022-09-30T09:48:41;1.10;;;1.00;;
75297;SDS011;63896;45.990;18.688;2022-09-30T09:55:01;0.85;;;0.85;;
75297;SDS011;63896;45.990;18.688;2022-09-30T09:58:04;2.88;;;1.02;;
75297;SDS011;63896;45.990;18.688;2022-09-30T10:01:19;0.70;;;0.70;;
75297;SDS011;63896;45.990;18.688;2022-09-30T10:04:36;1.50;;;1.02;;
75297;SDS011;63896;45.990;18.688;2022-09-30T10:08:06;2.75;;;1.00;;
75297;SDS011;63896;45.990;18.688;2022-09-30T10:11:17;1.55;;;0.73;;
75297;SDS011;63896;45.990;18.688;2022-09-30T10:14:23;0.98;;;0.80;;
75297;SDS011;63896;45.990;18.688;2022-09-30T10:17:27;1.00;;;1.00;;
75297;SDS011;63896;45.990;18.688;2022-09-30T10:20:33;1.00;;;0.98;;
75297;SDS011;63896;45.990;18.688;2022-09-30T10:23:38;1.10;;;1.00;;
75297;SDS011;63896;45.990;18.688;2022-09-30T10:26:42;1.15;;;0.95;;
75297;SDS011;63896;45.990;18.688;2022-09-30T10:29:50;3.10;;;0.85;;
75297;SDS011;63896;45.990;18.688;2022-09-30T10:32:53;3.03;;;1.00;;
75297;SDS011;63896;45.990;18.688;2022-09-30T10:36:18;0.98;;;0.93;;
75297;SDS011;63896;45.990;18.688;2022-09-30T10:39:27;1.17;;;1.08;;
75297;SDS011;63896;45.990;18.688;2022-09-30T10:42:33;1.10;;;1.00;;
75297;SDS011;63896;45.990;18.688;2022-09-30T10:45:40;0.90;;;0.90;;
75297;SDS011;63896;45.990;18.688;2022-09-30T10:49:07;1.33;;;1.00;;
75297;SDS011;63896;45.990;18.688;2022-09-30T10:52:17;1.60;;;1.00;;
75297;SDS011;63896;45.990;18.688;2022-09-30T10:55:40;0.93;;;0.50;;
75297;SDS011;63896;45.990;18.688;2022-09-30T10:58:45;1.33;;;0.55;;
75297;SDS011;63896;45.990;18.688;2022-09-30T11:01:59;0.47;;;0.47;;
75297;SDS011;63896;45.990;18.688;2022-09-30T11:05:26;1.80;;;1.00;;
75297;SDS011;63896;45.990;18.688;2022-09-30T11:08:38;0.95;;;0.60;;
75297;SDS011;63896;45.990;18.688;2022-09-30T11:11:52;3.88;;;0.50;;
75297;SDS011;63896;45.990;18.688;2022-09-30T11:18:37;1.38;;;0.32;;
75297;SDS011;63896;45.990;18.688;2022-09-30T11:21:47;1.70;;;0.60;;
75297;SDS011;63896;45.990;18.688;2022-09-30T11:24:54;1.70;;;1.33;;
75297;SDS011;63896;45.990;18.688;2022-09-30T11:41:35;1.63;;;1.50;;
75297;SDS011;63896;45.990;18.688;2022-09-30T11:44:46;2.13;;;0.80;;
75297;SDS011;63896;45.990;18.688;2022-09-30T11:58:10;2.83;;;0.50;;
75297;SDS011;63896;45.990;18.688;2022-09-30T12:01:37;2.83;;;0.80;;
75297;SDS011;63896;45.990;18.688;2022-09-30T12:04:45;1.83;;;0.60;;
75297;SDS011;63896;45.990;18.688;2022-09-30T12:07:57;0.73;;;0.68;;
75297;SDS011;63896;45.990;18.688;2022-09-30T12:11:15;1.67;;;0.50;;
75297;SDS011;63896;45.990;18.688;2022-09-30T12:14:32;2.58;;;0.90;;
75297;SDS011;63896;45.990;18.688;2022-09-30T12:17:45;1.45;;;0.40;;
75297;SDS011;63896;45.990;18.688;2022-09-30T12:20:57;2.60;;;0.52;;
75297;SDS011;63896;45.990;18.688;2022-09-30T12:27:31;2.57;;;0.50;;
75297;SDS011;63896;45.990;18.688;2022-09-30T12:30:40;2.67;;;0.60;;
75297;SDS011;63896;45.990;18.688;2022-09-30T12:33:54;3.05;;;1.08;;
75297;SDS011;63896;45.990;18.688;2022-09-30T12:40:50;5.00;;;1.13;;
75297;SDS011;63896;45.990;18.688;2022-09-30T12:47:38;0.88;;;0.68;;
75297;SDS011;63896;45.990;18.688;2022-09-30T12:50:48;1.10;;;0.70;;
75297;SDS011;63896;45.990;18.688;2022-09-30T12:54:02;2.35;;;0.55;;
75297;SDS011;63896;45.990;18.688;2022-09-30T12:57:28;0.75;;;0.75;;
75297;SDS011;63896;45.990;18.688;2022-09-30T13:00:34;2.90;;;0.60;;
75297;SDS011;63896;45.990;18.688;2022-09-30T13:09:55;1.52;;;0.70;;
75297;SDS011;63896;45.990;18.688;2022-09-30T13:16:11;4.83;;;0.40;;
75297;SDS011;63896;45.990;18.688;2022-09-30T13:19:19;3.85;;;0.80;;
75297;SDS011;63896;45.990;18.688;2022-09-30T13:25:51;1.05;;;0.70;;
75297;SDS011;63896;45.990;18.688;2022-09-30T13:29:45;1.33;;;0.77;;
75297;SDS011;63896;45.990;18.688;2022-09-30T13:32:31;0.60;;;0.60;;
75297;SDS011;63896;45.990;18.688;2022-09-30T13:38:44;1.65;;;0.70;;
75297;SDS011;63896;45.990;18.688;2022-09-30T13:45:14;1.10;;;0.70;;
75297;SDS011;63896;45.990;18.688;2022-09-30T13:48:29;0.50;;;0.50;;
75297;SDS011;63896;45.990;18.688;2022-09-30T13:51:41;0.93;;;0.80;;
75297;SDS011;63896;45.990;18.688;2022-09-30T13:54:48;1.40;;;0.60;;
75297;SDS011;63896;45.990;18.688;2022-09-30T14:01:22;3.13;;;1.30;;
75297;SDS011;63896;45.990;18.688;2022-09-30T14:15:00;0.80;;;0.80;;
75297;SDS011;63896;45.990;18.688;2022-09-30T14:24:51;1.45;;;0.80;;
75297;SDS011;63896;45.990;18.688;2022-09-30T14:28:04;1.65;;;0.60;;
75297;SDS011;63896;45.990;18.688;2022-09-30T14:31:13;1.75;;;0.68;;
75297;SDS011;63896;45.990;18.688;2022-09-30T14:34:17;1.33;;;0.60;;
75297;SDS011;63896;45.990;18.688;2022-09-30T14:37:28;0.73;;;0.30;;
75297;SDS011;63896;45.990;18.688;2022-09-30T14:40:34;2.05;;;0.40;;
75297;SDS011;63896;45.990;18.688;2022-09-30T14:43:42;0.85;;;0.60;;
75297;SDS011;63896;45.990;18.688;2022-09-30T14:46:47;2.97;;;0.60;;
75297;SDS011;63896;45.990;18.688;2022-09-30T14:49:52;2.90;;;0.60;;
75297;SDS011;63896;45.990;18.688;2022-09-30T14:52:56;1.70;;;0.50;;
75297;SDS011;63896;45.990;18.688;2022-09-30T14:56:00;5.20;;;0.55;;
75297;SDS011;63896;45.990;18.688;2022-09-30T15:02:20;3.15;;;0.50;;
75297;SDS011;63896;45.990;18.688;2022-09-30T15:05:23;0.65;;;0.50;;
75297;SDS011;63896;45.990;18.688;2022-09-30T15:08:26;2.37;;;1.13;;
75297;SDS011;63896;45.990;18.688;2022-09-30T15:11:29;2.53;;;1.27;;
75297;SDS011;63896;45.990;18.688;2022-09-30T15:14:45;3.25;;;1.30;;
75297;SDS011;63896;45.990;18.688;2022-09-30T15:17:52;0.80;;;0.50;;
75297;SDS011;63896;45.990;18.688;2022-09-30T15:21:02;1.80;;;0.80;;
75297;SDS011;63896;45.990;18.688;2022-09-30T15:24:10;1.60;;;0.60;;
75297;SDS011;63896;45.990;18.688;2022-09-30T15:27:23;2.20;;;0.30;;
75297;SDS011;63896;45.990;18.688;2022-09-30T15:30:29;3.00;;;0.50;;
75297;SDS011;63896;45.990;18.688;2022-09-30T15:33:34;1.50;;;0.60;;
75297;SDS011;63896;45.990;18.688;2022-09-30T15:36:37;0.93;;;0.85;;
75297;SDS011;63896;45.990;18.688;2022-09-30T15:39:44;1.60;;;0.70;;
75297;SDS011;63896;45.990;18.688;2022-09-30T15:43:08;1.02;;;0.70;;
75297;SDS011;63896;45.990;18.688;2022-09-30T15:46:29;3.25;;;0.60;;
75297;SDS011;63896;45.990;18.688;2022-09-30T15:52:39;1.33;;;0.70;;
75297;SDS011;63896;45.990;18.688;2022-09-30T15:55:44;3.43;;;0.63;;
75297;SDS011;63896;45.990;18.688;2022-09-30T15:58:59;1.48;;;0.57;;
75297;SDS011;63896;45.990;18.688;2022-09-30T16:02:03;3.60;;;1.90;;
75297;SDS011;63896;45.990;18.688;2022-09-30T16:05:05;6.75;;;2.10;;
75297;SDS011;63896;45.990;18.688;2022-09-30T16:08:09;1.98;;;1.20;;
75297;SDS011;63896;45.990;18.688;2022-09-30T16:11:28;6.57;;;2.27;;
75297;SDS011;63896;45.990;18.688;2022-09-30T16:18:04;3.05;;;1.48;;
75297;SDS011;63896;45.990;18.688;2022-09-30T16:21:22;3.03;;;1.00;;
75297;SDS011;63896;45.990;18.688;2022-09-30T16:24:41;1.77;;;1.25;;
75297;SDS011;63896;45.990;18.688;2022-09-30T16:27:45;1.40;;;0.90;;
75297;SDS011;63896;45.990;18.688;2022-09-30T16:30:48;1.23;;;0.80;;
75297;SDS011;63896;45.990;18.688;2022-09-30T16:33:53;1.83;;;1.27;;
75297;SDS011;63896;45.990;18.688;2022-09-30T16:37:03;3.47;;;1.70;;
75297;SDS011;63896;45.990;18.688;2022-09-30T16:40:30;5.85;;;2.42;;
75297;SDS011;63896;45.990;18.688;2022-09-30T16:43:34;3.30;;;1.70;;
75297;SDS011;63896;45.990;18.688;2022-09-30T16:46:37;5.88;;;2.50;;
75297;SDS011;63896;45.990;18.688;2022-09-30T16:49:41;6.40;;;2.60;;
75297;SDS011;63896;45.990;18.688;2022-09-30T16:52:46;3.83;;;2.05;;
75297;SDS011;63896;45.990;18.688;2022-09-30T16:55:49;4.93;;;2.25;;
75297;SDS011;63896;45.990;18.688;2022-09-30T16:58:53;3.97;;;1.60;;
75297;SDS011;63896;45.990;18.688;2022-09-30T17:01:57;3.00;;;1.60;;
75297;SDS011;63896;45.990;18.688;2022-09-30T17:05:01;5.18;;;2.00;;
75297;SDS011;63896;45.990;18.688;2022-09-30T17:08:05;5.95;;;1.90;;
75297;SDS011;63896;45.990;18.688;2022-09-30T17:11:14;3.38;;;2.08;;
75297;SDS011;63896;45.990;18.688;2022-09-30T17:14:18;5.47;;;2.17;;
75297;SDS011;63896;45.990;18.688;2022-09-30T17:17:21;3.50;;;1.90;;
75297;SDS011;63896;45.990;18.688;2022-09-30T17:20:24;4.05;;;1.95;;
75297;SDS011;63896;45.990;18.688;2022-09-30T17:23:28;4.78;;;1.90;;
75297;SDS011;63896;45.990;18.688;2022-09-30T17:26:31;9.13;;;2.72;;
75297;SDS011;63896;45.990;18.688;2022-09-30T17:29:35;5.53;;;1.90;;
75297;SDS011;63896;45.990;18.688;2022-09-30T17:32:43;4.97;;;1.90;;
75297;SDS011;63896;45.990;18.688;2022-09-30T17:35:56;5.00;;;2.00;;
75297;SDS011;63896;45.990;18.688;2022-09-30T17:39:00;5.75;;;1.52;;
75297;SDS011;63896;45.990;18.688;2022-09-30T17:42:23;3.97;;;1.90;;
75297;SDS011;63896;45.990;18.688;2022-09-30T17:45:44;7.60;;;2.33;;
75297;SDS011;63896;45.990;18.688;2022-09-30T17:48:48;4.97;;;2.53;;
75297;SDS011;63896;45.990;18.688;2022-09-30T17:51:55;4.57;;;2.50;;
75297;SDS011;63896;45.990;18.688;2022-09-30T17:55:00;5.15;;;2.38;;
75297;SDS011;63896;45.990;18.688;2022-09-30T17:58:03;4.80;;;2.05;;
75297;SDS011;63896;45.990;18.688;2022-09-30T18:01:09;3.43;;;1.00;;
75297;SDS011;63896;45.990;18.688;2022-09-30T18:04:12;4.18;;;1.10;;
75297;SDS011;63896;45.990;18.688;2022-09-30T18:07:15;2.33;;;1.27;;
75297;SDS011;63896;45.990;18.688;2022-09-30T18:10:18;3.55;;;1.25;;
75297;SDS011;63896;45.990;18.688;2022-09-30T18:13:22;6.15;;;1.58;;
75297;SDS011;63896;45.990;18.688;2022-09-30T18:16:26;2.73;;;1.57;;
75297;SDS011;63896;45.990;18.688;2022-09-30T18:19:35;2.67;;;1.20;;
75297;SDS011;63896;45.990;18.688;2022-09-30T18:22:38;2.78;;;1.58;;
75297;SDS011;63896;45.990;18.688;2022-09-30T18:25:41;2.28;;;1.45;;
75297;SDS011;63896;45.990;18.688;2022-09-30T18:28:45;2.80;;;1.27;;
75297;SDS011;63896;45.990;18.688;2022-09-30T18:31:49;4.03;;;1.63;;
75297;SDS011;63896;45.990;18.688;2022-09-30T18:34:53;3.65;;;1.50;;
75297;SDS011;63896;45.990;18.688;2022-09-30T18:37:57;4.35;;;1.90;;
75297;SDS011;63896;45.990;18.688;2022-09-30T18:41:00;6.50;;;1.80;;
75297;SDS011;63896;45.990;18.688;2022-09-30T18:44:06;3.17;;;1.90;;
75297;SDS011;63896;45.990;18.688;2022-09-30T18:47:10;5.77;;;1.80;;
75297;SDS011;63896;45.990;18.688;2022-09-30T18:50:13;5.10;;;1.92;;
75297;SDS011;63896;45.990;18.688;2022-09-30T18:53:19;5.00;;;2.00;;
75297;SDS011;63896;45.990;18.688;2022-09-30T18:56:24;4.45;;;1.92;;
75297;SDS011;63896;45.990;18.688;2022-09-30T18:59:33;7.82;;;2.35;;
75297;SDS011;63896;45.990;18.688;2022-09-30T19:02:37;4.73;;;2.83;;
75297;SDS011;63896;45.990;18.688;2022-09-30T19:05:41;3.75;;;2.67;;
75297;SDS011;63896;45.990;18.688;2022-09-30T19:08:44;5.90;;;2.30;;
75297;SDS011;63896;45.990;18.688;2022-09-30T19:11:48;7.90;;;1.70;;
75297;SDS011;63896;45.990;18.688;2022-09-30T19:14:52;16.42;;;2.95;;
75297;SDS011;63896;45.990;18.688;2022-09-30T19:17:56;7.97;;;1.80;;
75297;SDS011;63896;45.990;18.688;2022-09-30T19:21:03;9.35;;;2.63;;
75297;SDS011;63896;45.990;18.688;2022-09-30T19:24:11;19.08;;;2.28;;
75297;SDS011;63896;45.990;18.688;2022-09-30T19:27:14;8.80;;;2.17;;
75297;SDS011;63896;45.990;18.688;2022-09-30T19:30:17;5.18;;;1.60;;
75297;SDS011;63896;45.990;18.688;2022-09-30T19:33:21;5.73;;;2.13;;
75297;SDS011;63896;45.990;18.688;2022-09-30T19:36:27;4.25;;;1.73;;
75297;SDS011;63896;45.990;18.688;2022-09-30T19:39:45;6.22;;;2.15;;
75297;SDS011;63896;45.990;18.688;2022-09-30T19:42:48;7.88;;;2.25;;
75297;SDS011;63896;45.990;18.688;2022-09-30T19:45:53;7.30;;;1.98;;
75297;SDS011;63896;45.990;18.688;2022-09-30T19:49:00;4.23;;;1.60;;
75297;SDS011;63896;45.990;18.688;2022-09-30T19:52:03;4.38;;;2.03;;
75297;SDS011;63896;45.990;18.688;2022-09-30T19:55:17;2.70;;;1.88;;
75297;SDS011;63896;45.990;18.688;2022-09-30T19:58:20;3.75;;;1.60;;
75297;SDS011;63896;45.990;18.688;2022-09-30T20:01:23;4.72;;;2.00;;
75297;SDS011;63896;45.990;18.688;2022-09-30T20:04:31;3.27;;;2.00;;
75297;SDS011;63896;45.990;18.688;2022-09-30T20:07:35;4.53;;;2.00;;
75297;SDS011;63896;45.990;18.688;2022-09-30T20:10:38;7.85;;;2.25;;
75297;SDS011;63896;45.990;18.688;2022-09-30T20:13:41;6.60;;;2.50;;
75297;SDS011;63896;45.990;18.688;2022-09-30T20:16:44;6.13;;;2.20;;
75297;SDS011;63896;45.990;18.688;2022-09-30T20:19:50;4.67;;;2.20;;
75297;SDS011;63896;45.990;18.688;2022-09-30T20:23:12;4.38;;;2.40;;
75297;SDS011;63896;45.990;18.688;2022-09-30T20:26:16;3.65;;;2.42;;
75297;SDS011;63896;45.990;18.688;2022-09-30T20:29:20;6.38;;;2.28;;
75297;SDS011;63896;45.990;18.688;2022-09-30T20:32:23;3.83;;;2.30;;
75297;SDS011;63896;45.990;18.688;2022-09-30T20:35:28;4.50;;;2.37;;
75297;SDS011;63896;45.990;18.688;2022-09-30T20:38:31;4.70;;;2.83;;
75297;SDS011;63896;45.990;18.688;2022-09-30T20:41:36;5.43;;;3.13;;
75297;SDS011;63896;45.990;18.688;2022-09-30T20:44:40;6.63;;;3.13;;
75297;SDS011;63896;45.990;18.688;2022-09-30T20:47:46;10.02;;;3.53;;
75297;SDS011;63896;45.990;18.688;2022-09-30T20:50:49;4.67;;;3.50;;
75297;SDS011;63896;45.990;18.688;2022-09-30T20:53:53;7.13;;;3.65;;
75297;SDS011;63896;45.990;18.688;2022-09-30T20:56:57;8.50;;;4.10;;
75297;SDS011;63896;45.990;18.688;2022-09-30T21:00:09;6.10;;;4.40;;
75297;SDS011;63896;45.990;18.688;2022-09-30T21:03:12;7.20;;;3.90;;
75297;SDS011;63896;45.990;18.688;2022-09-30T21:06:16;7.00;;;4.07;;
75297;SDS011;63896;45.990;18.688;2022-09-30T21:09:22;7.00;;;5.28;;
75297;SDS011;63896;45.990;18.688;2022-09-30T21:12:25;6.53;;;5.10;;
75297;SDS011;63896;45.990;18.688;2022-09-30T21:15:28;10.30;;;4.80;;
75297;SDS011;63896;45.990;18.688;2022-09-30T21:18:32;9.20;;;4.30;;
75297;SDS011;63896;45.990;18.688;2022-09-30T21:21:35;6.77;;;4.63;;
75297;SDS011;63896;45.990;18.688;2022-09-30T21:24:38;7.53;;;5.25;;
75297;SDS011;63896;45.990;18.688;2022-09-30T21:27:44;13.18;;;6.13;;
75297;SDS011;63896;45.990;18.688;2022-09-30T21:30:47;10.55;;;5.93;;
75297;SDS011;63896;45.990;18.688;2022-09-30T21:33:51;9.10;;;5.38;;
75297;SDS011;63896;45.990;18.688;2022-09-30T21:36:56;11.00;;;5.53;;
75297;SDS011;63896;45.990;18.688;2022-09-30T21:39:59;7.57;;;5.10;;
75297;SDS011;63896;45.990;18.688;2022-09-30T21:43:03;8.55;;;5.38;;
75297;SDS011;63896;45.990;18.688;2022-09-30T21:46:07;11.25;;;5.28;;
75297;SDS011;63896;45.990;18.688;2022-09-30T21:49:15;8.98;;;4.68;;
75297;SDS011;63896;45.990;18.688;2022-09-30T21:52:20;9.97;;;4.87;;
75297;SDS011;63896;45.990;18.688;2022-09-30T21:55:24;7.05;;;4.72;;
75297;SDS011;63896;45.990;18.688;2022-09-30T21:58:28;8.15;;;5.38;;
75297;SDS011;63896;45.990;18.688;2022-09-30T22:01:33;5.90;;;4.90;;
75297;SDS011;63896;45.990;18.688;2022-09-30T22:04:38;8.85;;;4.97;;
75297;SDS011;63896;45.990;18.688;2022-09-30T22:07:42;7.70;;;4.83;;
75297;SDS011;63896;45.990;18.688;2022-09-30T22:10:45;10.27;;;5.18;;
75297;SDS011;63896;45.990;18.688;2022-09-30T22:13:49;9.15;;;5.50;;
75297;SDS011;63896;45.990;18.688;2022-09-30T22:16:57;8.38;;;4.50;;
75297;SDS011;63896;45.990;18.688;2022-09-30T22:20:00;9.77;;;4.82;;
75297;SDS011;63896;45.990;18.688;2022-09-30T22:23:04;8.57;;;4.63;;
75297;SDS011;63896;45.990;18.688;2022-09-30T22:26:11;11.52;;;5.47;;
75297;SDS011;63896;45.990;18.688;2022-09-30T22:29:18;6.68;;;4.82;;
75297;SDS011;63896;45.990;18.688;2022-09-30T22:32:21;8.23;;;4.82;;
75297;SDS011;63896;45.990;18.688;2022-09-30T22:35:24;7.20;;;5.15;;
75297;SDS011;63896;45.990;18.688;2022-09-30T22:38:59;7.23;;;4.70;;
75297;SDS011;63896;45.990;18.688;2022-09-30T22:42:02;6.32;;;4.38;;
75297;SDS011;63896;45.990;18.688;2022-09-30T22:45:06;9.02;;;4.93;;
75297;SDS011;63896;45.990;18.688;2022-09-30T22:48:09;7.10;;;4.38;;
75297;SDS011;63896;45.990;18.688;2022-09-30T22:51:15;6.55;;;4.25;;
75297;SDS011;63896;45.990;18.688;2022-09-30T22:54:18;12.53;;;4.43;;
75297;SDS011;63896;45.990;18.688;2022-09-30T22:57:22;7.68;;;4.60;;
75297;SDS011;63896;45.990;18.688;2022-09-30T23:00:25;6.28;;;4.43;;
75297;SDS011;63896;45.990;18.688;2022-09-30T23:03:28;7.88;;;3.97;;
75297;SDS011;63896;45.990;18.688;2022-09-30T23:06:31;7.07;;;3.95;;
75297;SDS011;63896;45.990;18.688;2022-09-30T23:09:34;4.80;;;4.07;;
75297;SDS011;63896;45.990;18.688;2022-09-30T23:12:37;5.68;;;4.10;;
75297;SDS011;63896;45.990;18.688;2022-09-30T23:15:40;8.52;;;4.90;;
75297;SDS011;63896;45.990;18.688;2022-09-30T23:18:43;6.32;;;4.75;;
75297;SDS011;63896;45.990;18.688;2022-09-30T23:21:48;8.15;;;5.20;;
75297;SDS011;63896;45.990;18.688;2022-09-30T23:24:51;7.13;;;4.70;;
75297;SDS011;63896;45.990;18.688;2022-09-30T23:27:54;5.63;;;4.68;;
75297;SDS011;63896;45.990;18.688;2022-09-30T23:31:01;7.00;;;5.28;;
75297;SDS011;63896;45.990;18.688;2022-09-30T23:34:06;8.07;;;5.63;;
75297;SDS011;63896;45.990;18.688;2022-09-30T23:37:09;9.18;;;6.15;;
75297;SDS011;63896;45.990;18.688;2022-09-30T23:40:12;9.70;;;5.97;;
75297;SDS011;63896;45.990;18.688;2022-09-30T23:43:16;7.75;;;5.20;;
75297;SDS011;63896;45.990;18.688;2022-09-30T23:46:19;7.50;;;5.82;;
75297;SDS011;63896;45.990;18.688;2022-09-30T23:49:22;6.90;;;5.10;;
75297;SDS011;63896;45.990;18.688;2022-09-30T23:52:25;9.60;;;6.05;;
75297;SDS011;63896;45.990;18.688;2022-09-30T23:55:28;7.70;;;5.40;;
75297;SDS011;63896;45.990;18.688;2022-09-30T23:58:32;10.80;;;6.07;;
